sensor_id;sensor_type;location;lat;lon;timestamp;P1;durP1;ratioP1;P2;durP2;ratioP2
17369;SDS011;8802;52.402;4.920;2023-02-28T00:00:07;4.10;;;1.92;;
17369;SDS011;8802;52.402;4.920;2023-02-28T00:02:36;6.72;;;2.67;;
17369;SDS011;8802;52.402;4.920;2023-02-28T00:05:04;4.15;;;1.77;;
17369;SDS011;8802;52.402;4.920;2023-02-28T00:07:32;2.78;;;1.95;;
17369;SDS011;8802;52.402;4.920;2023-02-28T00:10:00;4.07;;;1.98;;
17369;SDS011;8802;52.402;4.920;2023-02-28T00:12:27;5.47;;;2.22;;
17369;SDS011;8802;52.402;4.920;2023-02-28T00:14:54;5.75;;;2.10;;
17369;SDS011;8802;52.402;4.920;2023-02-28T00:17:21;3.03;;;1.77;;
17369;SDS011;8802;52.402;4.920;2023-02-28T00:19:48;4.03;;;2.13;;
17369;SDS011;8802;52.402;4.920;2023-02-28T00:22:16;3.15;;;2.00;;
17369;SDS011;8802;52.402;4.920;2023-02-28T00:24:44;3.47;;;2.20;;
17369;SDS011;8802;52.402;4.920;2023-02-28T00:27:13;3.45;;;1.92;;
17369;SDS011;8802;52.402;4.920;2023-02-28T00:29:40;5.82;;;2.13;;
17369;SDS011;8802;52.402;4.920;2023-02-28T00:32:07;4.13;;;2.03;;
17369;SDS011;8802;52.402;4.920;2023-02-28T00:34:34;4.95;;;1.92;;
17369;SDS011;8802;52.402;4.920;2023-02-28T00:37:03;4.50;;;1.90;;
17369;SDS011;8802;52.402;4.920;2023-02-28T00:39:32;3.50;;;2.10;;
17369;SDS011;8802;52.402;4.920;2023-02-28T00:42:01;2.42;;;1.83;;
17369;SDS011;8802;52.402;4.920;2023-02-28T00:44:29;3.60;;;1.90;;
17369;SDS011;8802;52.402;4.920;2023-02-28T00:46:57;6.53;;;2.05;;
17369;SDS011;8802;52.402;4.920;2023-02-28T00:49:24;4.68;;;2.10;;
17369;SDS011;8802;52.402;4.920;2023-02-28T00:51:52;3.53;;;1.90;;
17369;SDS011;8802;52.402;4.920;2023-02-28T00:54:20;4.68;;;2.20;;
17369;SDS011;8802;52.402;4.920;2023-02-28T00:56:47;5.00;;;2.17;;
17369;SDS011;8802;52.402;4.920;2023-02-28T00:59:15;7.30;;;2.20;;
17369;SDS011;8802;52.402;4.920;2023-02-28T01:01:44;2.72;;;2.08;;
17369;SDS011;8802;52.402;4.920;2023-02-28T01:04:12;5.03;;;1.98;;
17369;SDS011;8802;52.402;4.920;2023-02-28T01:06:40;2.70;;;2.13;;
17369;SDS011;8802;52.402;4.920;2023-02-28T01:09:07;4.07;;;2.13;;
17369;SDS011;8802;52.402;4.920;2023-02-28T01:11:34;3.65;;;1.98;;
17369;SDS011;8802;52.402;4.920;2023-02-28T01:14:02;5.93;;;2.10;;
17369;SDS011;8802;52.402;4.920;2023-02-28T01:16:29;3.50;;;2.15;;
17369;SDS011;8802;52.402;4.920;2023-02-28T01:18:58;3.42;;;2.00;;
17369;SDS011;8802;52.402;4.920;2023-02-28T01:21:24;4.15;;;2.15;;
17369;SDS011;8802;52.402;4.920;2023-02-28T01:23:51;3.80;;;1.77;;
17369;SDS011;8802;52.402;4.920;2023-02-28T01:26:19;3.58;;;2.25;;
17369;SDS011;8802;52.402;4.920;2023-02-28T01:28:48;5.18;;;2.28;;
17369;SDS011;8802;52.402;4.920;2023-02-28T01:31:16;3.92;;;2.17;;
17369;SDS011;8802;52.402;4.920;2023-02-28T01:33:44;7.10;;;2.45;;
17369;SDS011;8802;52.402;4.920;2023-02-28T01:36:13;6.07;;;2.17;;
17369;SDS011;8802;52.402;4.920;2023-02-28T01:38:41;4.35;;;2.20;;
17369;SDS011;8802;52.402;4.920;2023-02-28T01:41:09;7.20;;;2.20;;
17369;SDS011;8802;52.402;4.920;2023-02-28T01:44:01;3.70;;;2.15;;
17369;SDS011;8802;52.402;4.920;2023-02-28T01:46:30;3.50;;;2.00;;
17369;SDS011;8802;52.402;4.920;2023-02-28T01:49:00;2.50;;;2.28;;
17369;SDS011;8802;52.402;4.920;2023-02-28T01:51:33;5.05;;;2.28;;
17369;SDS011;8802;52.402;4.920;2023-02-28T01:54:06;6.55;;;2.40;;
17369;SDS011;8802;52.402;4.920;2023-02-28T01:56:38;4.30;;;2.40;;
17369;SDS011;8802;52.402;4.920;2023-02-28T01:59:08;6.90;;;2.33;;
17369;SDS011;8802;52.402;4.920;2023-02-28T02:01:36;5.95;;;1.95;;
17369;SDS011;8802;52.402;4.920;2023-02-28T02:04:03;2.85;;;2.38;;
17369;SDS011;8802;52.402;4.920;2023-02-28T02:06:34;4.75;;;2.28;;
17369;SDS011;8802;52.402;4.920;2023-02-28T02:09:08;5.18;;;2.38;;
17369;SDS011;8802;52.402;4.920;2023-02-28T02:11:35;3.60;;;2.15;;
17369;SDS011;8802;52.402;4.920;2023-02-28T02:14:15;3.75;;;2.33;;
17369;SDS011;8802;52.402;4.920;2023-02-28T02:17:04;4.63;;;2.20;;
17369;SDS011;8802;52.402;4.920;2023-02-28T02:19:49;4.35;;;2.40;;
17369;SDS011;8802;52.402;4.920;2023-02-28T02:22:38;5.15;;;2.05;;
17369;SDS011;8802;52.402;4.920;2023-02-28T02:25:25;6.45;;;2.25;;
17369;SDS011;8802;52.402;4.920;2023-02-28T02:28:07;4.82;;;2.55;;
17369;SDS011;8802;52.402;4.920;2023-02-28T02:30:57;3.90;;;2.22;;
17369;SDS011;8802;52.402;4.920;2023-02-28T02:33:48;4.63;;;2.30;;
17369;SDS011;8802;52.402;4.920;2023-02-28T02:36:39;2.72;;;1.77;;
17369;SDS011;8802;52.402;4.920;2023-02-28T02:39:14;5.53;;;2.22;;
17369;SDS011;8802;52.402;4.920;2023-02-28T02:41:46;8.07;;;2.53;;
17369;SDS011;8802;52.402;4.920;2023-02-28T02:44:18;4.38;;;2.28;;
17369;SDS011;8802;52.402;4.920;2023-02-28T02:46:49;5.50;;;2.28;;
17369;SDS011;8802;52.402;4.920;2023-02-28T02:49:22;4.68;;;2.28;;
17369;SDS011;8802;52.402;4.920;2023-02-28T02:51:55;4.80;;;2.53;;
17369;SDS011;8802;52.402;4.920;2023-02-28T02:54:28;6.07;;;2.38;;
17369;SDS011;8802;52.402;4.920;2023-02-28T02:56:58;6.05;;;3.00;;
17369;SDS011;8802;52.402;4.920;2023-02-28T02:59:29;4.00;;;2.65;;
17369;SDS011;8802;52.402;4.920;2023-02-28T03:01:56;4.95;;;2.30;;
17369;SDS011;8802;52.402;4.920;2023-02-28T03:04:28;4.28;;;2.45;;
17369;SDS011;8802;52.402;4.920;2023-02-28T03:07:00;4.05;;;2.53;;
17369;SDS011;8802;52.402;4.920;2023-02-28T03:09:27;5.05;;;2.60;;
17369;SDS011;8802;52.402;4.920;2023-02-28T03:11:54;4.07;;;2.67;;
17369;SDS011;8802;52.402;4.920;2023-02-28T03:14:25;7.60;;;3.00;;
17369;SDS011;8802;52.402;4.920;2023-02-28T03:17:07;3.58;;;2.63;;
17369;SDS011;8802;52.402;4.920;2023-02-28T03:20:02;6.07;;;2.50;;
17369;SDS011;8802;52.402;4.920;2023-02-28T03:22:39;6.05;;;2.83;;
17369;SDS011;8802;52.402;4.920;2023-02-28T03:25:18;4.10;;;2.58;;
17369;SDS011;8802;52.402;4.920;2023-02-28T03:27:55;6.72;;;2.55;;
17369;SDS011;8802;52.402;4.920;2023-02-28T03:30:35;5.43;;;2.60;;
17369;SDS011;8802;52.402;4.920;2023-02-28T03:33:08;4.35;;;2.90;;
17369;SDS011;8802;52.402;4.920;2023-02-28T03:35:39;3.90;;;2.67;;
17369;SDS011;8802;52.402;4.920;2023-02-28T03:38:12;3.13;;;2.38;;
17369;SDS011;8802;52.402;4.920;2023-02-28T03:40:46;5.72;;;3.35;;
17369;SDS011;8802;52.402;4.920;2023-02-28T03:43:18;6.50;;;3.15;;
17369;SDS011;8802;52.402;4.920;2023-02-28T03:45:48;6.72;;;2.67;;
17369;SDS011;8802;52.402;4.920;2023-02-28T03:48:18;6.10;;;3.22;;
17369;SDS011;8802;52.402;4.920;2023-02-28T03:50:48;4.78;;;2.80;;
17369;SDS011;8802;52.402;4.920;2023-02-28T03:53:21;4.72;;;3.08;;
17369;SDS011;8802;52.402;4.920;2023-02-28T03:55:52;6.65;;;2.97;;
17369;SDS011;8802;52.402;4.920;2023-02-28T03:58:24;5.32;;;2.92;;
17369;SDS011;8802;52.402;4.920;2023-02-28T04:00:58;4.72;;;2.53;;
17369;SDS011;8802;52.402;4.920;2023-02-28T04:03:32;6.97;;;2.80;;
17369;SDS011;8802;52.402;4.920;2023-02-28T04:06:00;5.05;;;3.13;;
17369;SDS011;8802;52.402;4.920;2023-02-28T04:08:29;2.65;;;2.30;;
17369;SDS011;8802;52.402;4.920;2023-02-28T04:10:57;4.45;;;2.35;;
17369;SDS011;8802;52.402;4.920;2023-02-28T04:13:27;4.32;;;2.42;;
17369;SDS011;8802;52.402;4.920;2023-02-28T04:15:54;4.75;;;2.20;;
17369;SDS011;8802;52.402;4.920;2023-02-28T04:18:21;3.47;;;2.10;;
17369;SDS011;8802;52.402;4.920;2023-02-28T04:20:48;2.72;;;2.10;;
17369;SDS011;8802;52.402;4.920;2023-02-28T04:23:14;4.40;;;2.35;;
17369;SDS011;8802;52.402;4.920;2023-02-28T04:25:43;2.85;;;2.00;;
17369;SDS011;8802;52.402;4.920;2023-02-28T04:28:09;3.03;;;1.98;;
17369;SDS011;8802;52.402;4.920;2023-02-28T04:30:37;3.45;;;2.17;;
17369;SDS011;8802;52.402;4.920;2023-02-28T04:33:04;3.95;;;2.17;;
17369;SDS011;8802;52.402;4.920;2023-02-28T04:35:31;2.97;;;2.15;;
17369;SDS011;8802;52.402;4.920;2023-02-28T04:37:58;5.18;;;2.67;;
17369;SDS011;8802;52.402;4.920;2023-02-28T04:40:24;4.63;;;2.70;;
17369;SDS011;8802;52.402;4.920;2023-02-28T04:42:53;3.60;;;2.75;;
17369;SDS011;8802;52.402;4.920;2023-02-28T04:45:19;4.38;;;2.25;;
17369;SDS011;8802;52.402;4.920;2023-02-28T04:47:46;5.80;;;2.85;;
17369;SDS011;8802;52.402;4.920;2023-02-28T04:50:13;4.75;;;2.50;;
17369;SDS011;8802;52.402;4.920;2023-02-28T04:52:40;3.22;;;2.53;;
17369;SDS011;8802;52.402;4.920;2023-02-28T04:55:07;4.43;;;2.72;;
17369;SDS011;8802;52.402;4.920;2023-02-28T04:57:35;3.63;;;3.03;;
17369;SDS011;8802;52.402;4.920;2023-02-28T05:00:03;2.72;;;2.50;;
17369;SDS011;8802;52.402;4.920;2023-02-28T05:02:36;4.55;;;2.83;;
17369;SDS011;8802;52.402;4.920;2023-02-28T05:05:04;4.20;;;3.00;;
17369;SDS011;8802;52.402;4.920;2023-02-28T05:07:31;3.70;;;2.70;;
17369;SDS011;8802;52.402;4.920;2023-02-28T05:09:58;5.10;;;3.30;;
17369;SDS011;8802;52.402;4.920;2023-02-28T05:12:25;5.57;;;3.03;;
17369;SDS011;8802;52.402;4.920;2023-02-28T05:14:51;4.72;;;3.13;;
17369;SDS011;8802;52.402;4.920;2023-02-28T05:17:20;3.90;;;3.10;;
17369;SDS011;8802;52.402;4.920;2023-02-28T05:19:46;6.32;;;3.50;;
17369;SDS011;8802;52.402;4.920;2023-02-28T05:22:14;4.43;;;2.70;;
17369;SDS011;8802;52.402;4.920;2023-02-28T05:24:42;5.68;;;3.13;;
17369;SDS011;8802;52.402;4.920;2023-02-28T05:27:09;5.22;;;3.22;;
17369;SDS011;8802;52.402;4.920;2023-02-28T05:29:36;3.67;;;2.90;;
17369;SDS011;8802;52.402;4.920;2023-02-28T05:32:07;5.88;;;3.22;;
17369;SDS011;8802;52.402;4.920;2023-02-28T05:34:36;3.90;;;3.30;;
17369;SDS011;8802;52.402;4.920;2023-02-28T05:37:04;5.18;;;3.50;;
17369;SDS011;8802;52.402;4.920;2023-02-28T05:39:31;4.72;;;3.90;;
17369;SDS011;8802;52.402;4.920;2023-02-28T05:41:58;4.45;;;3.30;;
17369;SDS011;8802;52.402;4.920;2023-02-28T05:44:25;7.85;;;3.85;;
17369;SDS011;8802;52.402;4.920;2023-02-28T05:46:52;3.78;;;3.38;;
17369;SDS011;8802;52.402;4.920;2023-02-28T05:49:18;4.68;;;3.60;;
17369;SDS011;8802;52.402;4.920;2023-02-28T05:51:47;8.52;;;3.40;;
17369;SDS011;8802;52.402;4.920;2023-02-28T05:54:13;3.97;;;3.58;;
17369;SDS011;8802;52.402;4.920;2023-02-28T05:56:41;4.60;;;3.92;;
17369;SDS011;8802;52.402;4.920;2023-02-28T05:59:09;6.72;;;4.28;;
17369;SDS011;8802;52.402;4.920;2023-02-28T06:01:36;4.57;;;4.07;;
17369;SDS011;8802;52.402;4.920;2023-02-28T06:04:06;5.10;;;4.45;;
17369;SDS011;8802;52.402;4.920;2023-02-28T06:06:34;6.22;;;4.78;;
17369;SDS011;8802;52.402;4.920;2023-02-28T06:09:03;5.82;;;4.57;;
17369;SDS011;8802;52.402;4.920;2023-02-28T06:11:30;7.88;;;5.18;;
17369;SDS011;8802;52.402;4.920;2023-02-28T06:13:58;7.10;;;4.82;;
17369;SDS011;8802;52.402;4.920;2023-02-28T06:16:26;6.03;;;5.15;;
17369;SDS011;8802;52.402;4.920;2023-02-28T06:18:53;6.03;;;5.22;;
17369;SDS011;8802;52.402;4.920;2023-02-28T06:21:21;7.13;;;5.45;;
17369;SDS011;8802;52.402;4.920;2023-02-28T06:23:49;6.38;;;5.72;;
17369;SDS011;8802;52.402;4.920;2023-02-28T06:26:17;6.35;;;5.72;;
17369;SDS011;8802;52.402;4.920;2023-02-28T06:28:44;6.43;;;5.82;;
17369;SDS011;8802;52.402;4.920;2023-02-28T06:31:12;7.95;;;6.15;;
17369;SDS011;8802;52.402;4.920;2023-02-28T06:33:40;7.72;;;6.35;;
17369;SDS011;8802;52.402;4.920;2023-02-28T06:36:08;8.48;;;6.10;;
17369;SDS011;8802;52.402;4.920;2023-02-28T06:38:36;9.20;;;6.85;;
17369;SDS011;8802;52.402;4.920;2023-02-28T06:41:03;7.35;;;6.13;;
17369;SDS011;8802;52.402;4.920;2023-02-28T06:43:33;6.53;;;5.90;;
17369;SDS011;8802;52.402;4.920;2023-02-28T06:46:03;9.05;;;7.15;;
17369;SDS011;8802;52.402;4.920;2023-02-28T06:48:31;7.80;;;6.30;;
17369;SDS011;8802;52.402;4.920;2023-02-28T06:51:01;8.55;;;7.68;;
17369;SDS011;8802;52.402;4.920;2023-02-28T06:53:29;8.55;;;7.07;;
17369;SDS011;8802;52.402;4.920;2023-02-28T06:55:56;8.15;;;7.35;;
17369;SDS011;8802;52.402;4.920;2023-02-28T06:58:23;9.32;;;7.40;;
17369;SDS011;8802;52.402;4.920;2023-02-28T07:00:51;7.30;;;6.47;;
17369;SDS011;8802;52.402;4.920;2023-02-28T07:03:18;8.43;;;7.63;;
17369;SDS011;8802;52.402;4.920;2023-02-28T07:05:45;8.30;;;6.50;;
17369;SDS011;8802;52.402;4.920;2023-02-28T07:08:12;9.45;;;7.35;;
17369;SDS011;8802;52.402;4.920;2023-02-28T07:10:39;7.05;;;6.35;;
17369;SDS011;8802;52.402;4.920;2023-02-28T07:13:07;7.85;;;7.15;;
17369;SDS011;8802;52.402;4.920;2023-02-28T07:15:34;10.48;;;5.78;;
17369;SDS011;8802;52.402;4.920;2023-02-28T07:18:03;7.57;;;5.63;;
17369;SDS011;8802;52.402;4.920;2023-02-28T07:20:30;8.15;;;5.78;;
17369;SDS011;8802;52.402;4.920;2023-02-28T07:22:57;9.00;;;6.53;;
17369;SDS011;8802;52.402;4.920;2023-02-28T07:25:25;7.93;;;5.40;;
17369;SDS011;8802;52.402;4.920;2023-02-28T07:27:52;7.35;;;5.30;;
17369;SDS011;8802;52.402;4.920;2023-02-28T07:30:20;7.40;;;4.60;;
17369;SDS011;8802;52.402;4.920;2023-02-28T07:32:47;7.75;;;5.10;;
17369;SDS011;8802;52.402;4.920;2023-02-28T07:35:15;6.93;;;4.60;;
17369;SDS011;8802;52.402;4.920;2023-02-28T07:37:42;7.10;;;4.57;;
17369;SDS011;8802;52.402;4.920;2023-02-28T07:40:10;5.30;;;4.28;;
17369;SDS011;8802;52.402;4.920;2023-02-28T07:42:37;4.38;;;3.92;;
17369;SDS011;8802;52.402;4.920;2023-02-28T07:45:06;4.57;;;4.18;;
17369;SDS011;8802;52.402;4.920;2023-02-28T07:47:36;5.55;;;4.40;;
17369;SDS011;8802;52.402;4.920;2023-02-28T07:50:03;4.68;;;3.75;;
17369;SDS011;8802;52.402;4.920;2023-02-28T07:52:32;5.32;;;3.97;;
17369;SDS011;8802;52.402;4.920;2023-02-28T07:54:59;5.93;;;4.47;;
17369;SDS011;8802;52.402;4.920;2023-02-28T07:57:26;5.03;;;4.22;;
17369;SDS011;8802;52.402;4.920;2023-02-28T07:59:52;4.28;;;3.88;;
17369;SDS011;8802;52.402;4.920;2023-02-28T08:02:19;5.15;;;4.13;;
17369;SDS011;8802;52.402;4.920;2023-02-28T08:04:46;4.85;;;4.15;;
17369;SDS011;8802;52.402;4.920;2023-02-28T08:07:14;4.85;;;4.40;;
17369;SDS011;8802;52.402;4.920;2023-02-28T08:09:43;6.03;;;4.82;;
17369;SDS011;8802;52.402;4.920;2023-02-28T08:12:10;4.57;;;4.15;;
17369;SDS011;8802;52.402;4.920;2023-02-28T08:14:37;4.88;;;4.35;;
17369;SDS011;8802;52.402;4.920;2023-02-28T08:17:05;4.88;;;4.30;;
17369;SDS011;8802;52.402;4.920;2023-02-28T08:19:32;5.00;;;3.97;;
17369;SDS011;8802;52.402;4.920;2023-02-28T08:21:59;5.20;;;4.13;;
17369;SDS011;8802;52.402;4.920;2023-02-28T08:24:26;4.35;;;3.95;;
17369;SDS011;8802;52.402;4.920;2023-02-28T08:26:54;4.95;;;4.45;;
17369;SDS011;8802;52.402;4.920;2023-02-28T08:29:21;4.60;;;3.83;;
17369;SDS011;8802;52.402;4.920;2023-02-28T08:31:48;4.40;;;4.00;;
17369;SDS011;8802;52.402;4.920;2023-02-28T08:34:15;4.30;;;3.90;;
17369;SDS011;8802;52.402;4.920;2023-02-28T08:36:43;4.13;;;3.72;;
17369;SDS011;8802;52.402;4.920;2023-02-28T08:39:10;6.85;;;4.07;;
17369;SDS011;8802;52.402;4.920;2023-02-28T08:41:37;4.00;;;3.65;;
17369;SDS011;8802;52.402;4.920;2023-02-28T08:44:06;4.28;;;3.88;;
17369;SDS011;8802;52.402;4.920;2023-02-28T08:46:32;6.32;;;4.35;;
17369;SDS011;8802;52.402;4.920;2023-02-28T08:48:59;6.88;;;4.20;;
17369;SDS011;8802;52.402;4.920;2023-02-28T08:51:27;4.90;;;4.40;;
17369;SDS011;8802;52.402;4.920;2023-02-28T08:53:55;5.85;;;4.00;;
17369;SDS011;8802;52.402;4.920;2023-02-28T08:56:25;5.40;;;3.92;;
17369;SDS011;8802;52.402;4.920;2023-02-28T08:58:53;4.40;;;4.00;;
17369;SDS011;8802;52.402;4.920;2023-02-28T09:01:23;5.63;;;3.75;;
17369;SDS011;8802;52.402;4.920;2023-02-28T09:03:52;4.57;;;3.80;;
17369;SDS011;8802;52.402;4.920;2023-02-28T09:06:21;4.18;;;3.78;;
17369;SDS011;8802;52.402;4.920;2023-02-28T09:08:49;6.47;;;4.43;;
17369;SDS011;8802;52.402;4.920;2023-02-28T09:11:16;6.55;;;4.32;;
17369;SDS011;8802;52.402;4.920;2023-02-28T09:13:44;5.13;;;4.18;;
17369;SDS011;8802;52.402;4.920;2023-02-28T09:16:12;5.95;;;4.20;;
17369;SDS011;8802;52.402;4.920;2023-02-28T09:18:42;4.13;;;3.72;;
17369;SDS011;8802;52.402;4.920;2023-02-28T09:21:10;5.07;;;4.10;;
17369;SDS011;8802;52.402;4.920;2023-02-28T09:23:39;7.18;;;4.75;;
17369;SDS011;8802;52.402;4.920;2023-02-28T09:26:06;6.25;;;4.30;;
17369;SDS011;8802;52.402;4.920;2023-02-28T09:28:34;5.72;;;4.43;;
17369;SDS011;8802;52.402;4.920;2023-02-28T09:31:00;7.55;;;4.68;;
17369;SDS011;8802;52.402;4.920;2023-02-28T09:33:29;6.47;;;4.30;;
17369;SDS011;8802;52.402;4.920;2023-02-28T09:36:00;8.38;;;5.13;;
17369;SDS011;8802;52.402;4.920;2023-02-28T09:38:28;7.57;;;5.28;;
17369;SDS011;8802;52.402;4.920;2023-02-28T09:40:56;7.60;;;4.85;;
17369;SDS011;8802;52.402;4.920;2023-02-28T09:43:25;6.82;;;4.53;;
17369;SDS011;8802;52.402;4.920;2023-02-28T09:45:55;6.68;;;4.78;;
17369;SDS011;8802;52.402;4.920;2023-02-28T09:48:27;4.47;;;4.07;;
17369;SDS011;8802;52.402;4.920;2023-02-28T09:51:02;4.95;;;4.45;;
17369;SDS011;8802;52.402;4.920;2023-02-28T09:53:32;5.70;;;4.90;;
17369;SDS011;8802;52.402;4.920;2023-02-28T09:56:01;6.13;;;4.95;;
17369;SDS011;8802;52.402;4.920;2023-02-28T09:58:34;5.93;;;4.45;;
17369;SDS011;8802;52.402;4.920;2023-02-28T10:01:09;4.60;;;4.15;;
17369;SDS011;8802;52.402;4.920;2023-02-28T10:03:47;3.38;;;3.05;;
17369;SDS011;8802;52.402;4.920;2023-02-28T10:06:25;5.32;;;3.20;;
17369;SDS011;8802;52.402;4.920;2023-02-28T10:08:57;4.60;;;3.10;;
17369;SDS011;8802;52.402;4.920;2023-02-28T10:11:27;4.05;;;3.38;;
17369;SDS011;8802;52.402;4.920;2023-02-28T10:13:56;3.80;;;3.38;;
17369;SDS011;8802;52.402;4.920;2023-02-28T10:16:31;4.28;;;3.30;;
17369;SDS011;8802;52.402;4.920;2023-02-28T10:19:02;4.47;;;3.13;;
17369;SDS011;8802;52.402;4.920;2023-02-28T10:21:34;4.70;;;3.28;;
17369;SDS011;8802;52.402;4.920;2023-02-28T10:24:04;4.18;;;3.40;;
17369;SDS011;8802;52.402;4.920;2023-02-28T10:26:40;3.67;;;3.00;;
17369;SDS011;8802;52.402;4.920;2023-02-28T10:29:11;4.25;;;2.95;;
17369;SDS011;8802;52.402;4.920;2023-02-28T10:31:38;3.42;;;2.72;;
17369;SDS011;8802;52.402;4.920;2023-02-28T10:34:05;4.30;;;2.92;;
17369;SDS011;8802;52.402;4.920;2023-02-28T10:36:34;4.20;;;2.80;;
17369;SDS011;8802;52.402;4.920;2023-02-28T10:39:01;3.40;;;2.80;;
17369;SDS011;8802;52.402;4.920;2023-02-28T10:42:01;3.00;;;2.70;;
17369;SDS011;8802;52.402;4.920;2023-02-28T10:44:28;3.70;;;3.03;;
17369;SDS011;8802;52.402;4.920;2023-02-28T10:46:54;3.05;;;2.70;;
17369;SDS011;8802;52.402;4.920;2023-02-28T10:49:22;3.75;;;2.97;;
17369;SDS011;8802;52.402;4.920;2023-02-28T10:51:54;2.95;;;2.58;;
17369;SDS011;8802;52.402;4.920;2023-02-28T10:54:23;3.03;;;2.72;;
17369;SDS011;8802;52.402;4.920;2023-02-28T10:57:07;4.85;;;2.72;;
17369;SDS011;8802;52.402;4.920;2023-02-28T10:59:40;3.00;;;2.65;;
17369;SDS011;8802;52.402;4.920;2023-02-28T11:04:57;3.15;;;2.50;;
17369;SDS011;8802;52.402;4.920;2023-02-28T11:07:26;3.33;;;2.25;;
17369;SDS011;8802;52.402;4.920;2023-02-28T11:09:54;3.38;;;1.92;;
17369;SDS011;8802;52.402;4.920;2023-02-28T11:12:23;3.50;;;2.40;;
17369;SDS011;8802;52.402;4.920;2023-02-28T11:14:53;2.60;;;2.40;;
17369;SDS011;8802;52.402;4.920;2023-02-28T11:17:23;2.15;;;1.90;;
17369;SDS011;8802;52.402;4.920;2023-02-28T11:19:53;3.15;;;2.00;;
17369;SDS011;8802;52.402;4.920;2023-02-28T11:22:23;2.95;;;2.38;;
17369;SDS011;8802;52.402;4.920;2023-02-28T11:24:55;2.13;;;1.92;;
17369;SDS011;8802;52.402;4.920;2023-02-28T11:27:24;3.42;;;2.13;;
17369;SDS011;8802;52.402;4.920;2023-02-28T11:29:52;3.05;;;1.88;;
17369;SDS011;8802;52.402;4.920;2023-02-28T11:32:20;3.60;;;2.13;;
17369;SDS011;8802;52.402;4.920;2023-02-28T11:34:59;2.00;;;1.80;;
17369;SDS011;8802;52.402;4.920;2023-02-28T11:37:28;2.60;;;1.70;;
17369;SDS011;8802;52.402;4.920;2023-02-28T11:39:57;2.08;;;1.60;;
17369;SDS011;8802;52.402;4.920;2023-02-28T11:42:28;4.22;;;1.92;;
17369;SDS011;8802;52.402;4.920;2023-02-28T11:45:19;2.67;;;1.70;;
17369;SDS011;8802;52.402;4.920;2023-02-28T11:47:56;2.83;;;2.10;;
17369;SDS011;8802;52.402;4.920;2023-02-28T11:50:42;4.03;;;2.28;;
17369;SDS011;8802;52.402;4.920;2023-02-28T11:53:18;2.40;;;2.20;;
17369;SDS011;8802;52.402;4.920;2023-02-28T11:55:57;2.17;;;1.90;;
17369;SDS011;8802;52.402;4.920;2023-02-28T11:58:31;3.35;;;2.25;;
17369;SDS011;8802;52.402;4.920;2023-02-28T12:04:11;3.15;;;1.90;;
17369;SDS011;8802;52.402;4.920;2023-02-28T12:06:48;2.28;;;1.73;;
17369;SDS011;8802;52.402;4.920;2023-02-28T12:09:32;1.98;;;1.75;;
17369;SDS011;8802;52.402;4.920;2023-02-28T12:12:15;2.53;;;1.75;;
17369;SDS011;8802;52.402;4.920;2023-02-28T12:14:59;2.78;;;1.80;;
17369;SDS011;8802;52.402;4.920;2023-02-28T12:20:36;2.13;;;1.92;;
17369;SDS011;8802;52.402;4.920;2023-02-28T12:23:14;2.38;;;2.10;;
17369;SDS011;8802;52.402;4.920;2023-02-28T12:26:03;2.80;;;1.83;;
17369;SDS011;8802;52.402;4.920;2023-02-28T12:28:37;1.70;;;1.60;;
17369;SDS011;8802;52.402;4.920;2023-02-28T12:31:09;2.20;;;2.00;;
17369;SDS011;8802;52.402;4.920;2023-02-28T12:33:44;2.88;;;2.25;;
17369;SDS011;8802;52.402;4.920;2023-02-28T12:36:14;3.78;;;2.22;;
17369;SDS011;8802;52.402;4.920;2023-02-28T12:38:47;3.13;;;2.17;;
17369;SDS011;8802;52.402;4.920;2023-02-28T12:41:16;3.05;;;2.40;;
17369;SDS011;8802;52.402;4.920;2023-02-28T12:43:48;3.35;;;2.30;;
17369;SDS011;8802;52.402;4.920;2023-02-28T12:46:19;3.15;;;1.98;;
17369;SDS011;8802;52.402;4.920;2023-02-28T12:48:50;3.13;;;2.33;;
17369;SDS011;8802;52.402;4.920;2023-02-28T12:51:21;3.50;;;2.20;;
17369;SDS011;8802;52.402;4.920;2023-02-28T12:53:54;16.17;;;10.30;;
17369;SDS011;8802;52.402;4.920;2023-02-28T12:56:30;5.43;;;4.18;;
17369;SDS011;8802;52.402;4.920;2023-02-28T12:59:07;6.03;;;3.42;;
17369;SDS011;8802;52.402;4.920;2023-02-28T13:04:47;3.10;;;2.33;;
17369;SDS011;8802;52.402;4.920;2023-02-28T13:07:32;3.10;;;2.40;;
17369;SDS011;8802;52.402;4.920;2023-02-28T13:10:21;5.32;;;2.30;;
17369;SDS011;8802;52.402;4.920;2023-02-28T13:12:48;2.35;;;2.15;;
17369;SDS011;8802;52.402;4.920;2023-02-28T13:15:19;2.65;;;2.28;;
17369;SDS011;8802;52.402;4.920;2023-02-28T13:17:49;5.18;;;2.33;;
17369;SDS011;8802;52.402;4.920;2023-02-28T13:20:19;3.22;;;2.20;;
17369;SDS011;8802;52.402;4.920;2023-02-28T13:22:48;2.78;;;2.40;;
17369;SDS011;8802;52.402;4.920;2023-02-28T13:31:25;2.33;;;1.92;;
17369;SDS011;8802;52.402;4.920;2023-02-28T13:34:05;3.75;;;2.53;;
17369;SDS011;8802;52.402;4.920;2023-02-28T13:36:40;2.78;;;2.17;;
17369;SDS011;8802;52.402;4.920;2023-02-28T13:42:22;3.22;;;2.05;;
17369;SDS011;8802;52.402;4.920;2023-02-28T13:47:52;2.33;;;1.98;;
17369;SDS011;8802;52.402;4.920;2023-02-28T13:50:23;2.35;;;2.13;;
17369;SDS011;8802;52.402;4.920;2023-02-28T13:56:01;2.65;;;2.40;;
17369;SDS011;8802;52.402;4.920;2023-02-28T13:58:37;2.40;;;2.20;;
17369;SDS011;8802;52.402;4.920;2023-02-28T14:01:22;3.55;;;2.50;;
17369;SDS011;8802;52.402;4.920;2023-02-28T14:04:12;2.90;;;2.20;;
17369;SDS011;8802;52.402;4.920;2023-02-28T14:06:55;2.40;;;2.20;;
17369;SDS011;8802;52.402;4.920;2023-02-28T14:09:24;2.50;;;2.30;;
17369;SDS011;8802;52.402;4.920;2023-02-28T14:11:55;3.58;;;2.20;;
17369;SDS011;8802;52.402;4.920;2023-02-28T14:17:20;2.75;;;2.10;;
17369;SDS011;8802;52.402;4.920;2023-02-28T14:19:48;2.63;;;2.25;;
17369;SDS011;8802;52.402;4.920;2023-02-28T14:22:19;2.60;;;2.00;;
17369;SDS011;8802;52.402;4.920;2023-02-28T14:25:11;2.70;;;2.05;;
17369;SDS011;8802;52.402;4.920;2023-02-28T14:27:48;2.65;;;2.30;;
17369;SDS011;8802;52.402;4.920;2023-02-28T14:33:19;2.40;;;2.20;;
17369;SDS011;8802;52.402;4.920;2023-02-28T14:38:40;3.00;;;2.20;;
17369;SDS011;8802;52.402;4.920;2023-02-28T14:41:14;2.97;;;2.28;;
17369;SDS011;8802;52.402;4.920;2023-02-28T14:43:48;2.88;;;2.60;;
17369;SDS011;8802;52.402;4.920;2023-02-28T14:46:17;2.70;;;2.50;;
17369;SDS011;8802;52.402;4.920;2023-02-28T14:48:45;2.25;;;2.05;;
17369;SDS011;8802;52.402;4.920;2023-02-28T14:51:17;2.50;;;2.30;;
17369;SDS011;8802;52.402;4.920;2023-02-28T14:53:48;4.43;;;2.33;;
17369;SDS011;8802;52.402;4.920;2023-02-28T14:56:21;2.75;;;2.25;;
17369;SDS011;8802;52.402;4.920;2023-02-28T14:58:53;2.88;;;2.33;;
17369;SDS011;8802;52.402;4.920;2023-02-28T15:01:22;3.55;;;2.20;;
17369;SDS011;8802;52.402;4.920;2023-02-28T15:03:56;2.65;;;2.45;;
17369;SDS011;8802;52.402;4.920;2023-02-28T15:06:27;2.30;;;2.10;;
17369;SDS011;8802;52.402;4.920;2023-02-28T15:09:07;3.13;;;2.10;;
17369;SDS011;8802;52.402;4.920;2023-02-28T15:11:37;3.53;;;2.47;;
17369;SDS011;8802;52.402;4.920;2023-02-28T15:14:06;2.67;;;2.47;;
17369;SDS011;8802;52.402;4.920;2023-02-28T15:16:34;2.50;;;2.13;;
17369;SDS011;8802;52.402;4.920;2023-02-28T15:19:05;3.65;;;3.05;;
17369;SDS011;8802;52.402;4.920;2023-02-28T15:21:35;2.92;;;2.45;;
17369;SDS011;8802;52.402;4.920;2023-02-28T15:24:05;3.38;;;2.75;;
17369;SDS011;8802;52.402;4.920;2023-02-28T15:26:38;11.95;;;8.27;;
17369;SDS011;8802;52.402;4.920;2023-02-28T15:29:07;26.17;;;15.10;;
17369;SDS011;8802;52.402;4.920;2023-02-28T15:31:40;13.55;;;8.38;;
17369;SDS011;8802;52.402;4.920;2023-02-28T15:34:15;40.08;;;23.55;;
17369;SDS011;8802;52.402;4.920;2023-02-28T15:36:47;8.93;;;6.88;;
17369;SDS011;8802;52.402;4.920;2023-02-28T15:39:22;6.45;;;5.63;;
17369;SDS011;8802;52.402;4.920;2023-02-28T15:41:51;4.80;;;3.53;;
17369;SDS011;8802;52.402;4.920;2023-02-28T15:44:23;4.38;;;3.35;;
17369;SDS011;8802;52.402;4.920;2023-02-28T15:46:55;3.75;;;3.30;;
17369;SDS011;8802;52.402;4.920;2023-02-28T15:49:26;3.83;;;3.35;;
17369;SDS011;8802;52.402;4.920;2023-02-28T15:51:58;5.88;;;5.30;;
17369;SDS011;8802;52.402;4.920;2023-02-28T15:54:27;4.32;;;3.92;;
17369;SDS011;8802;52.402;4.920;2023-02-28T15:56:56;3.50;;;3.20;;